Svitzer Leixoes — CSXW6 — position and weather

sailwx.info

Track history (hours):
 
Tides and Currents Weather Stations Pressure Air Temp Water Temp Dewpoint Dewpoint Depression Visibility Wind Speed Wind Dir Waves Ship Positions

Svitzer Leixoes

Last reported at 2016-May-25 06:31 UTC. Time now 2016-May-25 07:14 UTC.
Position N 38°42' W 009°10'.

; draft 3.6 m.

Type: Towing. MMSI: 263622000.

Date/timePositionNaut miles runAvg speedWind from/ knotsBaromVisibWave heightAir tempDewpointWater temp
2016-May-25 06:31N 38°42' W 009°10'0 0.0
2016-May-25 05:30N 38°42' W 009°10'0 0.0
2016-May-25 04:31N 38°42' W 009°10'0 0.0
2016-May-25 03:27N 38°42' W 009°10'0 0.0
2016-May-25 02:30N 38°42' W 009°10'0 0.0
2016-May-25 01:26N 38°42' W 009°10'0 0.0
2016-May-25 00:30N 38°42' W 009°10'0 0.0
2016-May-24 23:33N 38°42' W 009°10'0 0.0
2016-May-24 22:31N 38°42' W 009°10'0 0.0
2016-May-24 21:30N 38°42' W 009°10'0 0.0
2016-May-24 20:32N 38°42' W 009°10'0 0.0
2016-May-24 19:26N 38°42' W 009°10'0 0.0
2016-May-24 18:27N 38°42' W 009°10'0 0.0
2016-May-24 17:32N 38°42' W 009°10'0 0.0
2016-May-24 16:29N 38°42' W 009°10'0 0.0
2016-May-24 15:31N 38°42' W 009°10'0 0.0
2016-May-24 14:33N 38°42' W 009°10'0 0.0
2016-May-24 13:32N 38°42' W 009°10'0 0.0
2016-May-24 12:33N 38°42' W 009°10'0 0.0
2016-May-24 11:33N 38°42' W 009°10'0 0.0
2016-May-24 10:33N 38°42' W 009°10'0 0.0
2016-May-24 09:26N 38°42' W 009°10'0 0.0
2016-May-24 08:29N 38°42' W 009°10'0 0.0
2016-May-24 07:32N 38°42' W 009°10'0 0.0
2016-May-24 06:31N 38°42' W 009°10'0 0.0
2016-May-24 05:33N 38°42' W 009°10'2 1.8
2016-May-24 04:33N 38°41' W 009°08'3 2.8
2016-May-24 03:33N 38°41' W 009°04'4 3.9
2016-May-24 02:32N 38°42' W 009°09'0 0.5
2016-May-24 01:32N 38°42' W 009°10'0 0.0
2016-May-24 00:33N 38°42' W 009°10'0 0.0
2016-May-23 23:33N 38°42' W 009°10'0 0.0
2016-May-23 22:32N 38°42' W 009°10'0 0.0
2016-May-23 21:27N 38°42' W 009°10'0 0.0
2016-May-23 20:33N 38°42' W 009°10'0 0.0
2016-May-23 19:33N 38°42' W 009°10'0 0.0
2016-May-23 18:23N 38°42' W 009°10'0 0.0
2016-May-23 17:22N 38°42' W 009°10'0 0.0
2016-May-23 16:29N 38°42' W 009°10'2 1.8
2016-May-23 15:33N 38°41' W 009°11'1 1.3
2016-May-23 14:33N 38°42' W 009°10'0 0.4
2016-May-23 13:33N 38°42' W 009°10'0 0.0
2016-May-23 12:33N 38°42' W 009°10'1 0.7
2016-May-23 11:33N 38°42' W 009°09'2 1.7
2016-May-23 10:33N 38°40' W 009°09'2 1.8
2016-May-23 09:33N 38°42' W 009°10'2 1.9
2016-May-23 08:33N 38°40' W 009°09'2 2.1
2016-May-23 07:32N 38°42' W 009°10'0 0.0
2016-May-23 06:33N 38°42' W 009°10'0 0.0
2016-May-23 05:31N 38°42' W 009°10'0 0.0
2016-May-23 04:33N 38°42' W 009°10'4 3.7
2016-May-23 03:33N 38°41' W 009°14'3 2.7
2016-May-23 02:33N 38°42' W 009°11'1 1.0
2016-May-23 01:33N 38°42' W 009°10'0 0.0
2016-May-23 00:33N 38°42' W 009°10'0 0.0
2016-May-22 23:33N 38°42' W 009°10'0 0.0
2016-May-22 22:33N 38°42' W 009°10'0 0.0
2016-May-22 21:33N 38°42' W 009°10'0 0.0
2016-May-22 20:33N 38°42' W 009°10'0 0.0
2016-May-22 19:30N 38°42' W 009°10'0 0.0
2016-May-22 18:29N 38°42' W 009°10'0 0.0
2016-May-22 17:32N 38°42' W 009°10'0 0.0
2016-May-22 16:31N 38°42' W 009°10'3 2.6
2016-May-22 15:32N 38°41' W 009°13'1 0.6
2016-May-22 14:33N 38°41' W 009°13'2 2.2
2016-May-22 13:32N 38°42' W 009°11'1 0.9
2016-May-22 12:32N 38°42' W 009°10'0 0.0
2016-May-22 11:33N 38°42' W 009°10'0 0.4
2016-May-22 10:32N 38°42' W 009°09'0 0.4
2016-May-22 09:30N 38°42' W 009°10'0 0.2
2016-May-22 08:33N 38°42' W 009°10'1 1.0
2016-May-22 07:33N 38°42' W 009°09'1 0.8
2016-May-22 06:33N 38°42' W 009°10'0 0.0
2016-May-22 05:33N 38°42' W 009°10'0 0.0
2016-May-22 04:32N 38°42' W 009°10'0 0.0
2016-May-22 03:33N 38°42' W 009°10'0 0.0
2016-May-22 02:33N 38°42' W 009°10'0 0.0
2016-May-22 01:31N 38°42' W 009°10'0 0.0
2016-May-22 00:33N 38°42' W 009°10'0 0.0
2016-May-21 23:32N 38°42' W 009°10'0 0.0
2016-May-21 22:29N 38°42' W 009°10'0 0.0
2016-May-21 21:33N 38°42' W 009°10'3 2.7
2016-May-21 20:32N 38°41' W 009°13'3 3.0
2016-May-21 19:33N 38°42' W 009°09'1 0.9
2016-May-21 18:33N 38°42' W 009°11'1 0.8
2016-May-21 17:33N 38°42' W 009°10'0 0.4
2016-May-21 16:33N 38°42' W 009°10'0 0.2
2016-May-21 15:27N 38°42' W 009°10'0 0.0
2016-May-21 14:31N 38°42' W 009°10'0 0.0
2016-May-21 13:30N 38°42' W 009°10'0 0.0
2016-May-21 12:30N 38°42' W 009°10'1 0.7
2016-May-21 11:33N 38°42' W 009°10'1 0.6
2016-May-21 10:33N 38°42' W 009°10'0 0.0
2016-May-21 09:33N 38°42' W 009°10'0 0.0
2016-May-21 08:33N 38°42' W 009°10'0 0.0
2016-May-21 07:32N 38°42' W 009°10'0 0.0
2016-May-21 06:32N 38°42' W 009°10'0 0.0
2016-May-21 05:33N 38°42' W 009°10'0 0.0
2016-May-21 04:33N 38°42' W 009°10'0 0.0
2016-May-21 03:32N 38°42' W 009°10'0 0.0
2016-May-21 02:33N 38°42' W 009°10'0 0.0
2016-May-21 01:32N 38°42' W 009°10'0 0.0
2016-May-21 00:32N 38°42' W 009°10'0 0.0
2016-May-20 23:33N 38°42' W 009°10'2 2.0
2016-May-20 22:33N 38°42' W 009°07'2 2.0
2016-May-20 21:33N 38°42' W 009°10'0 0.0
2016-May-20 20:27N 38°42' W 009°10'3 3.6
2016-May-20 19:32N 38°41' W 009°13'0 0.4
2016-May-20 18:33N 38°41' W 009°13'3 2.8
2016-May-20 17:32N 38°42' W 009°10'2 1.7
2016-May-20 16:33N 38°41' W 009°11'2 1.6
2016-May-20 15:32N 38°42' W 009°10'0 0.0
2016-May-20 14:33N 38°42' W 009°10'0 0.0
2016-May-20 13:33N 38°42' W 009°10'0 0.0
2016-May-20 12:33N 38°42' W 009°10'0 0.0
2016-May-20 11:32N 38°42' W 009°10'0 0.0
2016-May-20 10:33N 38°42' W 009°10'0 0.0
2016-May-20 09:26N 38°42' W 009°10'0 0.1
2016-May-20 08:33N 38°42' W 009°10'2 1.6
2016-May-20 07:33N 38°42' W 009°12'2 1.7
2016-May-20 06:33N 38°42' W 009°10'0 0.0
2016-May-20 04:32N 38°42' W 009°10'0 0.0
2016-May-20 03:33N 38°42' W 009°10'3 3.4
2016-May-20 02:33N 38°41' W 009°14'1 1.1
2016-May-20 01:33N 38°41' W 009°15'4 3.8
2016-May-20 00:31N 38°42' W 009°10'1 0.6
2016-May-19 23:33N 38°42' W 009°10'0 0.0
2016-May-19 22:33N 38°42' W 009°10'0 0.0
2016-May-19 21:33N 38°42' W 009°10'0 0.0
2016-May-19 20:30N 38°42' W 009°10'0 0.0
2016-May-19 19:33N 38°42' W 009°10'0 0.0
2016-May-19 18:33N 38°42' W 009°10'1 1.5
2016-May-19 17:33N 38°41' W 009°08'1 0.9
2016-May-19 16:33N 38°41' W 009°09'1 0.7
2016-May-19 15:31N 38°42' W 009°10'0 0.0
2016-May-19 14:32N 38°42' W 009°10'0 0.0
2016-May-19 13:33N 38°42' W 009°10'0 0.0
2016-May-19 12:30N 38°42' W 009°10'0 0.0
2016-May-19 11:32N 38°42' W 009°10'0 0.0
2016-May-19 10:33N 38°42' W 009°10'0 0.0
2016-May-19 09:29N 38°42' W 009°10'0 0.0
2016-May-19 08:29N 38°42' W 009°10'2 2.2
2016-May-19 07:33N 38°43' W 009°07'3 2.9
2016-May-19 06:33N 38°41' W 009°10'2 1.7
2016-May-19 05:32N 38°40' W 009°09'2 2.1
2016-May-19 04:31N 38°42' W 009°10'0 0.0
2016-May-19 03:32N 38°42' W 009°10'0 0.0
2016-May-19 02:33N 38°42' W 009°10'0 0.0
2016-May-19 01:32N 38°42' W 009°10'0 0.0
2016-May-19 00:31N 38°42' W 009°10'0 0.0
2016-May-18 23:33N 38°42' W 009°10'0 0.0
2016-May-18 22:30N 38°42' W 009°10'0 0.0
2016-May-18 21:33N 38°42' W 009°10'0 0.0
2016-May-18 20:32N 38°42' W 009°10'0 0.0
2016-May-18 19:33N 38°42' W 009°10'0 0.0
2016-May-18 18:33N 38°42' W 009°10'3 3.3
2016-May-18 17:32N 38°44' W 009°06'2 1.6
2016-May-18 16:33N 38°43' W 009°07'2 1.8
2016-May-18 15:24N 38°42' W 009°10'0 0.0
2016-May-18 14:33N 38°42' W 009°10'0 0.0
2016-May-18 13:34N 38°42' W 009°10'2 1.8
2016-May-18 12:33N 38°41' W 009°11'2 1.9
2016-May-18 11:33N 38°42' W 009°09'0 0.2
2016-May-18 10:29N 38°42' W 009°10'0 0.0
2016-May-18 09:30N 38°42' W 009°10'0 0.0
2016-May-18 08:33N 38°42' W 009°10'0 0.0
2016-May-18 07:33N 38°42' W 009°10'2 1.8
2016-May-18 06:33N 38°41' W 009°11'1 1.0
2016-May-18 05:33N 38°41' W 009°12'2 2.2
2016-May-18 04:28N 38°42' W 009°10'0 0.0
2016-May-18 03:28N 38°42' W 009°10'0 0.0
2016-May-18 02:32N 38°42' W 009°10'0 0.0
2016-May-18 01:32N 38°42' W 009°10'1 0.6
2016-May-18 00:33N 38°42' W 009°10'1 1.1
2016-May-17 23:34N 38°41' W 009°11'2 1.6
2016-May-17 22:31N 38°42' W 009°10'0 0.0
2016-May-17 21:33N 38°42' W 009°10'0 0.0
2016-May-17 20:32N 38°42' W 009°10'1 0.8
2016-May-17 19:33N 38°42' W 009°10'3 3.0
2016-May-17 18:33N 38°41' W 009°14'0 0.4
2016-May-17 17:33N 38°41' W 009°14'4 4.0
2016-May-17 16:34N 38°42' W 009°10'0 0.0
2016-May-17 15:33N 38°42' W 009°10'0 0.0
2016-May-17 14:33N 38°42' W 009°10'0 0.0
2016-May-17 13:33N 38°42' W 009°10'0 0.0
2016-May-17 12:30N 38°42' W 009°10'0 0.0
2016-May-17 11:33N 38°42' W 009°10'0 0.0
2016-May-17 10:33N 38°42' W 009°10'0 0.0
2016-May-17 09:28N 38°42' W 009°10'0 0.0
2016-May-17 08:33N 38°42' W 009°10'0 0.0
2016-May-17 07:28N 38°42' W 009°10'0 0.0
2016-May-17 06:34N 38°42' W 009°10'0 0.0
2016-May-17 05:33N 38°42' W 009°10'0 0.0
2016-May-17 04:29N 38°42' W 009°10'0 0.0
2016-May-17 03:33N 38°42' W 009°10'0 0.0
2016-May-17 02:30N 38°42' W 009°10'0 0.0
2016-May-17 01:31N 38°42' W 009°10'0 0.0
2016-May-17 00:33N 38°42' W 009°10'0 0.0
2016-May-16 23:30N 38°42' W 009°10'0 0.0
2016-May-16 22:33N 38°42' W 009°10'0 0.0
2016-May-16 21:29N 38°42' W 009°10'0 0.0
2016-May-16 20:33N 38°42' W 009°10'3 2.8
2016-May-16 19:33N 38°43' W 009°06'3 2.8
2016-May-16 18:33N 38°41' W 009°08'3 3.1
2016-May-16 17:32N 38°41' W 009°12'2 1.7
2016-May-16 16:33N 38°41' W 009°14'4 3.7
2016-May-16 15:32N 38°42' W 009°10'0 0.0
2016-May-16 14:33N 38°42' W 009°10'0 0.0
2016-May-16 13:32N 38°42' W 009°10'0 0.0
2016-May-16 12:27N 38°42' W 009°10'3 3.8
2016-May-16 11:33N 38°44' W 009°06'3 2.8
2016-May-16 10:34N 38°42' W 009°08'3 3.2
2016-May-16 09:33N 38°41' W 009°04'3 3.4
2016-May-16 08:33N 38°41' W 009°08'2 1.6
2016-May-16 07:32N 38°42' W 009°10'0 0.0
2016-May-16 06:32N 38°42' W 009°10'0 0.0
2016-May-16 05:31N 38°42' W 009°10'0 0.0
2016-May-16 04:31N 38°42' W 009°10'0 0.0
2016-May-16 03:33N 38°42' W 009°10'0 0.0
2016-May-16 02:32N 38°42' W 009°10'0 0.0
2016-May-16 01:33N 38°42' W 009°10'0 0.0
2016-May-16 00:33N 38°42' W 009°10'0 0.0
2016-May-15 23:34N 38°42' W 009°10'0 0.0
2016-May-15 22:33N 38°42' W 009°10'0 0.0
2016-May-15 21:31N 38°42' W 009°10'0 0.3
2016-May-15 20:33N 38°42' W 009°10'0 0.3
2016-May-15 19:34N 38°42' W 009°10'0 0.0
2016-May-15 18:33N 38°42' W 009°10'0 0.0
2016-May-15 17:27N 38°42' W 009°10'0 0.0
2016-May-15 16:33N 38°42' W 009°10'0 0.0
2016-May-15 15:33N 38°42' W 009°10'0 0.0
2016-May-15 14:34N 38°42' W 009°10'0 0.0
2016-May-15 13:33N 38°42' W 009°10'0 0.0
2016-May-15 12:32N 38°42' W 009°10'0 0.0
2016-May-15 11:33N 38°42' W 009°10'0 0.0
2016-May-15 10:25N 38°42' W 009°10'0 0.0
2016-May-15 09:30N 38°42' W 009°10'0 0.0
2016-May-15 08:25N 38°42' W 009°10'0 0.0
2016-May-15 07:33N 38°42' W 009°10'0 0.0
2016-May-15 06:33N 38°42' W 009°10'  
Track history (hours):
 
Tides and Currents Weather Stations Pressure Air Temp Water Temp Dewpoint Dewpoint Depression Visibility Wind Speed Wind Dir Waves Ship Positions

Svitzer Leixoes

Last reported at 2016-May-25 06:31 UTC. Time now 2016-May-25 07:14 UTC.
Position N 38°42' W 009°10'.

; draft 3.6 m.

Type: Towing. MMSI: 263622000.

Date/timePositionNaut miles runAvg speedWind from/ knotsBaromVisibWave heightAir tempDewpointWater temp
2016-May-25 06:31N 38°42' W 009°10'0 0.0
2016-May-25 05:30N 38°42' W 009°10'0 0.0
2016-May-25 04:31N 38°42' W 009°10'0 0.0
2016-May-25 03:27N 38°42' W 009°10'0 0.0
2016-May-25 02:30N 38°42' W 009°10'0 0.0
2016-May-25 01:26N 38°42' W 009°10'0 0.0
2016-May-25 00:30N 38°42' W 009°10'0 0.0
2016-May-24 23:33N 38°42' W 009°10'0 0.0
2016-May-24 22:31N 38°42' W 009°10'0 0.0
2016-May-24 21:30N 38°42' W 009°10'0 0.0
2016-May-24 20:32N 38°42' W 009°10'0 0.0
2016-May-24 19:26N 38°42' W 009°10'0 0.0
2016-May-24 18:27N 38°42' W 009°10'0 0.0
2016-May-24 17:32N 38°42' W 009°10'0 0.0
2016-May-24 16:29N 38°42' W 009°10'0 0.0
2016-May-24 15:31N 38°42' W 009°10'0 0.0
2016-May-24 14:33N 38°42' W 009°10'0 0.0
2016-May-24 13:32N 38°42' W 009°10'0 0.0
2016-May-24 12:33N 38°42' W 009°10'0 0.0
2016-May-24 11:33N 38°42' W 009°10'0 0.0
2016-May-24 10:33N 38°42' W 009°10'0 0.0
2016-May-24 09:26N 38°42' W 009°10'0 0.0
2016-May-24 08:29N 38°42' W 009°10'0 0.0
2016-May-24 07:32N 38°42' W 009°10'0 0.0
2016-May-24 06:31N 38°42' W 009°10'0 0.0
2016-May-24 05:33N 38°42' W 009°10'2 1.8
2016-May-24 04:33N 38°41' W 009°08'3 2.8
2016-May-24 03:33N 38°41' W 009°04'4 3.9
2016-May-24 02:32N 38°42' W 009°09'0 0.5
2016-May-24 01:32N 38°42' W 009°10'0 0.0
2016-May-24 00:33N 38°42' W 009°10'0 0.0
2016-May-23 23:33N 38°42' W 009°10'0 0.0
2016-May-23 22:32N 38°42' W 009°10'0 0.0
2016-May-23 21:27N 38°42' W 009°10'0 0.0
2016-May-23 20:33N 38°42' W 009°10'0 0.0
2016-May-23 19:33N 38°42' W 009°10'0 0.0
2016-May-23 18:23N 38°42' W 009°10'0 0.0
2016-May-23 17:22N 38°42' W 009°10'0 0.0
2016-May-23 16:29N 38°42' W 009°10'2 1.8
2016-May-23 15:33N 38°41' W 009°11'1 1.3
2016-May-23 14:33N 38°42' W 009°10'0 0.4
2016-May-23 13:33N 38°42' W 009°10'0 0.0
2016-May-23 12:33N 38°42' W 009°10'1 0.7
2016-May-23 11:33N 38°42' W 009°09'2 1.7
2016-May-23 10:33N 38°40' W 009°09'2 1.8
2016-May-23 09:33N 38°42' W 009°10'2 1.9
2016-May-23 08:33N 38°40' W 009°09'2 2.1
2016-May-23 07:32N 38°42' W 009°10'0 0.0
2016-May-23 06:33N 38°42' W 009°10'0 0.0
2016-May-23 05:31N 38°42' W 009°10'0 0.0
2016-May-23 04:33N 38°42' W 009°10'4 3.7
2016-May-23 03:33N 38°41' W 009°14'3 2.7
2016-May-23 02:33N 38°42' W 009°11'1 1.0
2016-May-23 01:33N 38°42' W 009°10'0 0.0
2016-May-23 00:33N 38°42' W 009°10'0 0.0
2016-May-22 23:33N 38°42' W 009°10'0 0.0
2016-May-22 22:33N 38°42' W 009°10'0 0.0
2016-May-22 21:33N 38°42' W 009°10'0 0.0
2016-May-22 20:33N 38°42' W 009°10'0 0.0
2016-May-22 19:30N 38°42' W 009°10'0 0.0
2016-May-22 18:29N 38°42' W 009°10'0 0.0
2016-May-22 17:32N 38°42' W 009°10'0 0.0
2016-May-22 16:31N 38°42' W 009°10'3 2.6
2016-May-22 15:32N 38°41' W 009°13'1 0.6
2016-May-22 14:33N 38°41' W 009°13'2 2.2
2016-May-22 13:32N 38°42' W 009°11'1 0.9
2016-May-22 12:32N 38°42' W 009°10'0 0.0
2016-May-22 11:33N 38°42' W 009°10'0 0.4
2016-May-22 10:32N 38°42' W 009°09'0 0.4
2016-May-22 09:30N 38°42' W 009°10'0 0.2
2016-May-22 08:33N 38°42' W 009°10'1 1.0
2016-May-22 07:33N 38°42' W 009°09'1 0.8
2016-May-22 06:33N 38°42' W 009°10'0 0.0
2016-May-22 05:33N 38°42' W 009°10'0 0.0
2016-May-22 04:32N 38°42' W 009°10'0 0.0
2016-May-22 03:33N 38°42' W 009°10'0 0.0
2016-May-22 02:33N 38°42' W 009°10'0 0.0
2016-May-22 01:31N 38°42' W 009°10'0 0.0
2016-May-22 00:33N 38°42' W 009°10'0 0.0
2016-May-21 23:32N 38°42' W 009°10'0 0.0
2016-May-21 22:29N 38°42' W 009°10'0 0.0
2016-May-21 21:33N 38°42' W 009°10'3 2.7
2016-May-21 20:32N 38°41' W 009°13'3 3.0
2016-May-21 19:33N 38°42' W 009°09'1 0.9
2016-May-21 18:33N 38°42' W 009°11'1 0.8
2016-May-21 17:33N 38°42' W 009°10'0 0.4
2016-May-21 16:33N 38°42' W 009°10'0 0.2
2016-May-21 15:27N 38°42' W 009°10'0 0.0
2016-May-21 14:31N 38°42' W 009°10'0 0.0
2016-May-21 13:30N 38°42' W 009°10'0 0.0
2016-May-21 12:30N 38°42' W 009°10'1 0.7
2016-May-21 11:33N 38°42' W 009°10'1 0.6
2016-May-21 10:33N 38°42' W 009°10'0 0.0
2016-May-21 09:33N 38°42' W 009°10'0 0.0
2016-May-21 08:33N 38°42' W 009°10'0 0.0
2016-May-21 07:32N 38°42' W 009°10'0 0.0
2016-May-21 06:32N 38°42' W 009°10'0 0.0
2016-May-21 05:33N 38°42' W 009°10'0 0.0
2016-May-21 04:33N 38°42' W 009°10'0 0.0
2016-May-21 03:32N 38°42' W 009°10'0 0.0
2016-May-21 02:33N 38°42' W 009°10'0 0.0
2016-May-21 01:32N 38°42' W 009°10'0 0.0
2016-May-21 00:32N 38°42' W 009°10'0 0.0
2016-May-20 23:33N 38°42' W 009°10'2 2.0
2016-May-20 22:33N 38°42' W 009°07'2 2.0
2016-May-20 21:33N 38°42' W 009°10'0 0.0
2016-May-20 20:27N 38°42' W 009°10'3 3.6
2016-May-20 19:32N 38°41' W 009°13'0 0.4
2016-May-20 18:33N 38°41' W 009°13'3 2.8
2016-May-20 17:32N 38°42' W 009°10'2 1.7
2016-May-20 16:33N 38°41' W 009°11'2 1.6
2016-May-20 15:32N 38°42' W 009°10'0 0.0
2016-May-20 14:33N 38°42' W 009°10'0 0.0
2016-May-20 13:33N 38°42' W 009°10'0 0.0
2016-May-20 12:33N 38°42' W 009°10'0 0.0
2016-May-20 11:32N 38°42' W 009°10'0 0.0
2016-May-20 10:33N 38°42' W 009°10'0 0.0
2016-May-20 09:26N 38°42' W 009°10'0 0.1
2016-May-20 08:33N 38°42' W 009°10'2 1.6
2016-May-20 07:33N 38°42' W 009°12'2 1.7
2016-May-20 06:33N 38°42' W 009°10'0 0.0
2016-May-20 04:32N 38°42' W 009°10'0 0.0
2016-May-20 03:33N 38°42' W 009°10'3 3.4
2016-May-20 02:33N 38°41' W 009°14'1 1.1
2016-May-20 01:33N 38°41' W 009°15'4 3.8
2016-May-20 00:31N 38°42' W 009°10'1 0.6
2016-May-19 23:33N 38°42' W 009°10'0 0.0
2016-May-19 22:33N 38°42' W 009°10'0 0.0
2016-May-19 21:33N 38°42' W 009°10'0 0.0
2016-May-19 20:30N 38°42' W 009°10'0 0.0
2016-May-19 19:33N 38°42' W 009°10'0 0.0
2016-May-19 18:33N 38°42' W 009°10'1 1.5
2016-May-19 17:33N 38°41' W 009°08'1 0.9
2016-May-19 16:33N 38°41' W 009°09'1 0.7
2016-May-19 15:31N 38°42' W 009°10'0 0.0
2016-May-19 14:32N 38°42' W 009°10'0 0.0
2016-May-19 13:33N 38°42' W 009°10'0 0.0
2016-May-19 12:30N 38°42' W 009°10'0 0.0
2016-May-19 11:32N 38°42' W 009°10'0 0.0
2016-May-19 10:33N 38°42' W 009°10'0 0.0
2016-May-19 09:29N 38°42' W 009°10'0 0.0
2016-May-19 08:29N 38°42' W 009°10'2 2.2
2016-May-19 07:33N 38°43' W 009°07'3 2.9
2016-May-19 06:33N 38°41' W 009°10'2 1.7
2016-May-19 05:32N 38°40' W 009°09'2 2.1
2016-May-19 04:31N 38°42' W 009°10'0 0.0
2016-May-19 03:32N 38°42' W 009°10'0 0.0
2016-May-19 02:33N 38°42' W 009°10'0 0.0
2016-May-19 01:32N 38°42' W 009°10'0 0.0
2016-May-19 00:31N 38°42' W 009°10'0 0.0
2016-May-18 23:33N 38°42' W 009°10'0 0.0
2016-May-18 22:30N 38°42' W 009°10'0 0.0
2016-May-18 21:33N 38°42' W 009°10'0 0.0
2016-May-18 20:32N 38°42' W 009°10'0 0.0
2016-May-18 19:33N 38°42' W 009°10'0 0.0
2016-May-18 18:33N 38°42' W 009°10'3 3.3
2016-May-18 17:32N 38°44' W 009°06'2 1.6
2016-May-18 16:33N 38°43' W 009°07'2 1.8
2016-May-18 15:24N 38°42' W 009°10'0 0.0
2016-May-18 14:33N 38°42' W 009°10'0 0.0
2016-May-18 13:34N 38°42' W 009°10'2 1.8
2016-May-18 12:33N 38°41' W 009°11'2 1.9
2016-May-18 11:33N 38°42' W 009°09'0 0.2
2016-May-18 10:29N 38°42' W 009°10'0 0.0
2016-May-18 09:30N 38°42' W 009°10'0 0.0
2016-May-18 08:33N 38°42' W 009°10'0 0.0
2016-May-18 07:33N 38°42' W 009°10'2 1.8
2016-May-18 06:33N 38°41' W 009°11'1 1.0
2016-May-18 05:33N 38°41' W 009°12'2 2.2
2016-May-18 04:28N 38°42' W 009°10'0 0.0
2016-May-18 03:28N 38°42' W 009°10'0 0.0
2016-May-18 02:32N 38°42' W 009°10'0 0.0
2016-May-18 01:32N 38°42' W 009°10'1 0.6
2016-May-18 00:33N 38°42' W 009°10'1 1.1
2016-May-17 23:34N 38°41' W 009°11'2 1.6
2016-May-17 22:31N 38°42' W 009°10'0 0.0
2016-May-17 21:33N 38°42' W 009°10'0 0.0
2016-May-17 20:32N 38°42' W 009°10'1 0.8
2016-May-17 19:33N 38°42' W 009°10'3 3.0
2016-May-17 18:33N 38°41' W 009°14'0 0.4
2016-May-17 17:33N 38°41' W 009°14'4 4.0
2016-May-17 16:34N 38°42' W 009°10'0 0.0
2016-May-17 15:33N 38°42' W 009°10'0 0.0
2016-May-17 14:33N 38°42' W 009°10'0 0.0
2016-May-17 13:33N 38°42' W 009°10'0 0.0
2016-May-17 12:30N 38°42' W 009°10'0 0.0
2016-May-17 11:33N 38°42' W 009°10'0 0.0
2016-May-17 10:33N 38°42' W 009°10'0 0.0
2016-May-17 09:28N 38°42' W 009°10'0 0.0
2016-May-17 08:33N 38°42' W 009°10'0 0.0
2016-May-17 07:28N 38°42' W 009°10'0 0.0
2016-May-17 06:34N 38°42' W 009°10'0 0.0
2016-May-17 05:33N 38°42' W 009°10'0 0.0
2016-May-17 04:29N 38°42' W 009°10'0 0.0
2016-May-17 03:33N 38°42' W 009°10'0 0.0
2016-May-17 02:30N 38°42' W 009°10'0 0.0
2016-May-17 01:31N 38°42' W 009°10'0 0.0
2016-May-17 00:33N 38°42' W 009°10'0 0.0
2016-May-16 23:30N 38°42' W 009°10'0 0.0
2016-May-16 22:33N 38°42' W 009°10'0 0.0
2016-May-16 21:29N 38°42' W 009°10'0 0.0
2016-May-16 20:33N 38°42' W 009°10'3 2.8
2016-May-16 19:33N 38°43' W 009°06'3 2.8
2016-May-16 18:33N 38°41' W 009°08'3 3.1
2016-May-16 17:32N 38°41' W 009°12'2 1.7
2016-May-16 16:33N 38°41' W 009°14'4 3.7
2016-May-16 15:32N 38°42' W 009°10'0 0.0
2016-May-16 14:33N 38°42' W 009°10'0 0.0
2016-May-16 13:32N 38°42' W 009°10'0 0.0
2016-May-16 12:27N 38°42' W 009°10'3 3.8
2016-May-16 11:33N 38°44' W 009°06'3 2.8
2016-May-16 10:34N 38°42' W 009°08'3 3.2
2016-May-16 09:33N 38°41' W 009°04'3 3.4
2016-May-16 08:33N 38°41' W 009°08'2 1.6
2016-May-16 07:32N 38°42' W 009°10'0 0.0
2016-May-16 06:32N 38°42' W 009°10'0 0.0
2016-May-16 05:31N 38°42' W 009°10'0 0.0
2016-May-16 04:31N 38°42' W 009°10'0 0.0
2016-May-16 03:33N 38°42' W 009°10'0 0.0
2016-May-16 02:32N 38°42' W 009°10'0 0.0
2016-May-16 01:33N 38°42' W 009°10'0 0.0
2016-May-16 00:33N 38°42' W 009°10'0 0.0
2016-May-15 23:34N 38°42' W 009°10'0 0.0
2016-May-15 22:33N 38°42' W 009°10'0 0.0
2016-May-15 21:31N 38°42' W 009°10'0 0.3
2016-May-15 20:33N 38°42' W 009°10'0 0.3
2016-May-15 19:34N 38°42' W 009°10'0 0.0
2016-May-15 18:33N 38°42' W 009°10'0 0.0
2016-May-15 17:27N 38°42' W 009°10'0 0.0
2016-May-15 16:33N 38°42' W 009°10'0 0.0
2016-May-15 15:33N 38°42' W 009°10'0 0.0
2016-May-15 14:34N 38°42' W 009°10'0 0.0
2016-May-15 13:33N 38°42' W 009°10'0 0.0
2016-May-15 12:32N 38°42' W 009°10'0 0.0
2016-May-15 11:33N 38°42' W 009°10'0 0.0
2016-May-15 10:25N 38°42' W 009°10'0 0.0
2016-May-15 09:30N 38°42' W 009°10'0 0.0
2016-May-15 08:25N 38°42' W 009°10'0 0.0
2016-May-15 07:33N 38°42' W 009°10'0 0.0
2016-May-15 06:33N 38°42' W 009°10'  

Dump ship's entire track history